createdAt,value
2023-03-08T00:01:23.376Z,58.79
2023-03-08T00:03:57.764Z,58.42
2023-03-08T00:06:32.833Z,58.55
2023-03-08T00:09:03.179Z,58.05
2023-03-08T00:11:31.180Z,57.52
2023-03-08T00:13:58.377Z,56.96
2023-03-08T00:16:25.832Z,56.82
2023-03-08T00:18:52.918Z,56.57
2023-03-08T00:21:20.027Z,56.31
2023-03-08T00:23:47.615Z,56.07
2023-03-08T00:26:15.103Z,55.76
2023-03-08T00:28:42.427Z,55.60
2023-03-08T00:31:12.528Z,55.93
2023-03-08T00:33:40.628Z,55.48
2023-03-08T00:36:17.978Z,55.46
2023-03-08T00:38:46.683Z,55.77
2023-03-08T00:41:14.962Z,55.89
2023-03-08T00:43:42.566Z,55.46
2023-03-08T00:46:10.271Z,55.54
2023-03-08T00:48:39.160Z,55.41
2023-03-08T00:51:06.389Z,55.51
2023-03-08T00:53:33.946Z,55.70
2023-03-08T00:56:01.474Z,55.81
2023-03-08T00:58:31.686Z,55.81
2023-03-08T01:00:59.416Z,55.95
2023-03-08T01:03:27.989Z,55.33
2023-03-08T01:05:57.833Z,55.76
2023-03-08T01:08:28.968Z,55.74
2023-03-08T01:10:59.413Z,55.73
2023-03-08T01:13:28.872Z,55.90
2023-03-08T01:15:56.330Z,56.18
2023-03-08T01:18:23.665Z,55.93
2023-03-08T01:21:04.926Z,56.38
2023-03-08T01:23:33.211Z,56.15
2023-03-08T01:26:03.013Z,56.47
2023-03-08T01:28:30.228Z,55.83
2023-03-08T01:31:08.448Z,56.35
2023-03-08T01:33:37.630Z,56.08
2023-03-08T01:36:06.324Z,57.55
2023-03-08T01:38:33.432Z,57.60
2023-03-08T01:41:02.475Z,57.03
2023-03-08T01:43:32.486Z,56.73
2023-03-08T01:46:12.007Z,57.09
2023-03-08T01:48:55.484Z,56.86
2023-03-08T01:51:30.547Z,57.07
2023-03-08T01:54:00.635Z,56.85
2023-03-08T01:56:28.260Z,57.00
2023-03-08T01:58:57.736Z,56.74
2023-03-08T02:01:24.803Z,56.73
2023-03-08T02:03:55.038Z,56.74
2023-03-08T02:06:22.781Z,57.14
2023-03-08T02:08:49.927Z,57.23
2023-03-08T02:11:19.439Z,57.10
2023-03-08T02:13:47.894Z,57.39
2023-03-08T02:16:16.676Z,57.66
2023-03-08T02:18:54.429Z,57.52
2023-03-08T02:21:22.996Z,57.28
2023-03-08T02:23:50.025Z,57.46
2023-03-08T02:26:17.332Z,57.38
2023-03-08T02:28:45.049Z,57.27
2023-03-08T02:31:38.193Z,57.66
2023-03-08T02:34:05.492Z,57.37
2023-03-08T02:36:32.495Z,57.60
2023-03-08T02:38:59.519Z,57.30
2023-03-08T02:41:28.601Z,57.25
2023-03-08T02:43:55.679Z,57.22
2023-03-08T02:46:22.682Z,57.81
2023-03-08T02:48:53.031Z,57.75
2023-03-08T02:51:21.376Z,57.45
2023-03-08T02:53:48.397Z,57.10
2023-03-08T02:56:15.455Z,58.21
2023-03-08T02:58:42.328Z,57.41
2023-03-08T03:01:13.841Z,57.55
2023-03-08T03:03:42.114Z,57.49
2023-03-08T03:06:18.278Z,57.97
2023-03-08T03:08:48.913Z,57.52
2023-03-08T03:11:20.059Z,57.75
2023-03-08T03:13:56.330Z,57.89
2023-03-08T03:16:26.769Z,57.84
2023-03-08T03:18:55.291Z,58.57
2023-03-08T03:21:23.503Z,57.93
2023-03-08T03:23:51.102Z,58.43
2023-03-08T03:26:23.316Z,57.63
2023-03-08T03:28:58.250Z,57.51
2023-03-08T03:31:28.824Z,58.02
2023-03-08T03:33:55.849Z,57.89
2023-03-08T03:36:25.929Z,57.87
2023-03-08T03:38:53.165Z,57.63
2023-03-08T03:41:23.022Z,57.45
2023-03-08T03:43:59.474Z,57.40
2023-03-08T03:46:26.866Z,57.38
2023-03-08T03:48:56.549Z,57.46
2023-03-08T03:51:25.970Z,57.46
2023-03-08T03:54:07.238Z,57.66
2023-03-08T03:56:35.305Z,57.44
2023-03-08T03:59:02.399Z,57.53
2023-03-08T04:01:32.076Z,57.35
2023-03-08T04:04:11.747Z,57.59
2023-03-08T04:06:42.417Z,57.46
2023-03-08T04:09:15.792Z,57.29
2023-03-08T04:11:46.329Z,57.64
2023-03-08T04:14:18.230Z,57.12
2023-03-08T04:16:45.428Z,57.52
2023-03-08T04:19:26.156Z,57.17
2023-03-08T04:21:56.215Z,56.92
2023-03-08T04:24:26.580Z,57.19
2023-03-08T04:26:57.706Z,57.20
2023-03-08T04:29:24.906Z,56.42
2023-03-08T04:31:51.981Z,56.80
2023-03-08T04:34:20.393Z,56.62
2023-03-08T04:36:49.872Z,56.53
2023-03-08T04:39:17.746Z,56.56
2023-03-08T04:41:44.780Z,56.59
2023-03-08T04:44:20.180Z,56.78
2023-03-08T04:46:50.801Z,57.28
2023-03-08T04:49:25.433Z,56.73
2023-03-08T04:51:57.978Z,56.84
2023-03-08T04:54:25.728Z,56.77
2023-03-08T04:56:59.424Z,56.73
2023-03-08T04:59:26.373Z,56.47
2023-03-08T05:01:56.182Z,56.30
2023-03-08T05:04:24.298Z,56.33
2023-03-08T05:06:52.264Z,56.27
2023-03-08T05:09:23.897Z,56.07
2023-03-08T05:11:52.514Z,56.04
2023-03-08T05:14:21.873Z,56.56
2023-03-08T05:16:49.799Z,56.03
2023-03-08T05:19:17.165Z,55.89
2023-03-08T05:21:49.246Z,56.11
2023-03-08T05:24:16.376Z,55.78
2023-03-08T05:26:43.385Z,55.61
2023-03-08T05:29:13.681Z,55.32
2023-03-08T05:31:42.073Z,55.13
2023-03-08T05:34:11.402Z,54.96
2023-03-08T05:36:42.844Z,54.51
2023-03-08T05:39:11.448Z,54.28
2023-03-08T05:41:52.481Z,54.19
2023-03-08T05:44:27.845Z,54.04
2023-03-08T05:46:55.902Z,53.71
2023-03-08T05:49:23.198Z,53.89
2023-03-08T05:51:51.106Z,53.70
2023-03-08T05:54:19.472Z,53.41
2023-03-08T05:56:49.047Z,53.40
2023-03-08T05:59:26.945Z,53.35
2023-03-08T06:01:57.946Z,53.13
2023-03-08T06:04:38.800Z,53.04
2023-03-08T06:07:05.816Z,53.01
2023-03-08T06:09:37.661Z,52.77
2023-03-08T06:12:05.982Z,52.99
2023-03-08T06:14:32.986Z,52.75
2023-03-08T06:16:59.961Z,52.73
2023-03-08T06:19:30.281Z,53.04
2023-03-08T06:21:57.931Z,52.75
2023-03-08T06:24:25.720Z,52.39
2023-03-08T06:26:55.708Z,51.95
2023-03-08T06:29:23.042Z,51.52
2023-03-08T06:31:50.552Z,51.55
2023-03-08T06:34:18.172Z,51.26
2023-03-08T06:36:46.365Z,51.29
2023-03-08T06:39:13.667Z,51.31
2023-03-08T06:41:40.774Z,51.40
2023-03-08T06:44:07.738Z,51.19
2023-03-08T06:46:34.728Z,51.35
2023-03-08T06:49:01.813Z,51.18
2023-03-08T06:51:29.795Z,51.15
2023-03-08T06:53:57.178Z,51.62
2023-03-08T06:56:28.183Z,51.09
2023-03-08T06:58:55.173Z,51.12
2023-03-08T07:01:22.319Z,50.85
2023-03-08T07:03:50.259Z,50.82
2023-03-08T07:06:17.431Z,50.15
2023-03-08T07:08:44.334Z,49.20
2023-03-08T07:11:11.737Z,49.11
2023-03-08T07:13:39.253Z,49.02
2023-03-08T07:16:08.686Z,48.28
2023-03-08T07:18:35.939Z,47.44
2023-03-08T07:21:03.172Z,46.63
2023-03-08T07:23:30.181Z,46.31
2023-03-08T07:25:57.108Z,45.20
2023-03-08T07:28:24.553Z,45.06
2023-03-08T07:30:53.238Z,45.66
2023-03-08T07:33:21.394Z,45.48
2023-03-08T07:35:49.061Z,45.17
2023-03-08T07:38:16.868Z,45.41
2023-03-08T07:40:44.401Z,44.60
2023-03-08T07:43:11.499Z,44.61
2023-03-08T07:46:05.733Z,44.87
2023-03-08T07:48:33.186Z,44.50
2023-03-08T07:51:07.386Z,44.29
2023-03-08T07:53:35.563Z,44.25
2023-03-08T07:56:03.163Z,43.91
2023-03-08T07:58:30.422Z,43.73
2023-03-08T08:00:57.377Z,43.85
2023-03-08T08:03:24.651Z,43.78
2023-03-08T08:05:51.738Z,43.75
2023-03-08T08:08:18.821Z,43.68
2023-03-08T08:10:45.761Z,44.00
2023-03-08T08:13:12.774Z,43.53
2023-03-08T08:15:39.728Z,43.60
2023-03-08T08:18:06.811Z,43.69
2023-03-08T08:20:33.711Z,43.15
2023-03-08T08:23:00.699Z,42.97
2023-03-08T08:25:27.668Z,42.72
2023-03-08T08:27:54.609Z,43.20
2023-03-08T08:30:21.661Z,42.54
2023-03-08T08:32:48.725Z,42.77
2023-03-08T08:35:15.679Z,42.82
2023-03-08T08:37:42.787Z,42.48
2023-03-08T08:40:10.696Z,42.64
2023-03-08T08:42:38.021Z,42.53
2023-03-08T08:45:05.605Z,42.10
2023-03-08T08:47:32.496Z,42.31
2023-03-08T08:49:59.448Z,42.03
2023-03-08T08:52:26.412Z,41.75
2023-03-08T08:54:53.647Z,41.44
2023-03-08T08:57:20.639Z,41.45
2023-03-08T08:59:48.016Z,40.48
2023-03-08T09:02:15.257Z,40.39
2023-03-08T09:04:42.483Z,39.77
2023-03-08T09:07:09.491Z,39.27
2023-03-08T09:09:36.562Z,38.82
2023-03-08T09:12:03.542Z,38.71
2023-03-08T09:14:30.506Z,37.47
2023-03-08T09:16:57.525Z,36.79
2023-03-08T09:19:24.551Z,35.61
2023-03-08T09:21:51.554Z,34.42
2023-03-08T09:24:18.523Z,32.86
2023-03-08T09:26:45.457Z,30.82
2023-03-08T09:29:12.765Z,28.96
2023-03-08T09:31:40.505Z,28.51
2023-03-08T09:34:10.878Z,28.36
2023-03-08T09:36:39.817Z,28.61
2023-03-08T09:39:11.320Z,28.79
2023-03-08T09:41:50.823Z,27.57
2023-03-08T09:44:32.956Z,28.14
2023-03-08T09:47:11.522Z,26.86
2023-03-08T09:49:40.768Z,27.49
2023-03-08T09:52:38.533Z,26.44
2023-03-08T09:55:12.583Z,25.54
2023-03-08T09:57:49.238Z,24.62
2023-03-08T10:00:26.327Z,23.78
2023-03-08T10:03:03.301Z,22.72
2023-03-08T10:05:40.396Z,21.85
2023-03-08T10:08:31.777Z,21.77
2023-03-08T10:11:13.643Z,21.03
2023-03-08T10:13:48.913Z,22.17
2023-03-08T10:16:40.386Z,21.70
2023-03-08T10:19:26.872Z,22.55
2023-03-08T10:21:57.104Z,23.17
2023-03-08T10:24:37.215Z,22.21
2023-03-08T10:27:17.132Z,22.37
2023-03-08T10:29:58.784Z,21.39
2023-03-08T10:32:27.751Z,22.79
2023-03-08T10:35:04.844Z,22.12
2023-03-08T10:37:33.512Z,22.63
2023-03-08T10:40:05.602Z,22.38
2023-03-08T10:42:33.540Z,21.89
2023-03-08T10:45:17.218Z,21.54
2023-03-08T10:47:57.586Z,21.83
2023-03-08T10:50:30.632Z,22.51
2023-03-08T10:53:14.873Z,22.83
2023-03-08T10:55:50.360Z,23.70
2023-03-08T10:58:35.151Z,23.51
2023-03-08T11:01:06.437Z,23.52
2023-03-08T11:03:33.934Z,23.74
2023-03-08T11:06:03.870Z,23.86
2023-03-08T11:08:34.462Z,23.64
2023-03-08T11:11:13.038Z,24.09
2023-03-08T11:13:42.164Z,23.86
2023-03-08T11:16:15.064Z,22.96
2023-03-08T11:19:00.614Z,23.09
2023-03-08T11:21:49.930Z,23.32
2023-03-08T11:24:28.354Z,22.67
2023-03-08T11:27:21.370Z,22.56
2023-03-08T11:30:12.849Z,22.43
2023-03-08T11:33:04.177Z,22.36
2023-03-08T11:35:54.975Z,23.34
2023-03-08T11:38:21.954Z,23.69
2023-03-08T11:41:14.902Z,23.98
2023-03-08T11:43:48.104Z,24.81
2023-03-08T11:46:52.732Z,25.31
2023-03-08T11:49:44.368Z,25.33
2023-03-08T11:52:49.795Z,25.95
2023-03-08T11:55:20.910Z,26.34
2023-03-08T11:58:16.595Z,26.91
2023-03-08T12:00:46.112Z,27.29
2023-03-08T12:03:31.170Z,27.60
2023-03-08T12:06:03.793Z,27.61
2023-03-08T12:08:57.777Z,27.93
2023-03-08T12:11:31.465Z,28.48
2023-03-08T12:14:30.422Z,28.73
2023-03-08T12:17:07.509Z,29.06
2023-03-08T12:19:46.723Z,28.89
2023-03-08T12:22:19.347Z,29.04
2023-03-08T12:24:57.232Z,29.46
2023-03-08T12:27:39.169Z,29.48
2023-03-08T12:30:15.275Z,29.87
2023-03-08T12:32:43.686Z,30.01
2023-03-08T12:35:22.993Z,30.23
2023-03-08T12:37:58.705Z,30.08
2023-03-08T12:40:39.756Z,30.39
2023-03-08T12:43:31.540Z,30.55
2023-03-08T12:46:01.661Z,30.40
2023-03-08T12:48:44.616Z,30.57
2023-03-08T12:51:14.958Z,30.47
2023-03-08T12:53:51.114Z,30.84
2023-03-08T12:56:20.840Z,30.62
2023-03-08T12:58:55.348Z,30.78
2023-03-08T13:01:39.136Z,30.50
2023-03-08T13:04:39.360Z,29.88
2023-03-08T13:07:22.411Z,29.95
2023-03-08T13:09:55.323Z,29.98
2023-03-08T13:12:25.377Z,30.05
2023-03-08T13:15:11.271Z,30.42
2023-03-08T13:17:50.549Z,30.50
2023-03-08T13:20:29.768Z,30.53
2023-03-08T13:23:07.881Z,30.64
2023-03-08T13:25:43.898Z,30.64
2023-03-08T13:28:14.974Z,30.45
2023-03-08T13:30:52.128Z,30.42
2023-03-08T13:33:30.709Z,30.39
2023-03-08T13:36:16.876Z,30.92
2023-03-08T13:38:43.991Z,30.83
2023-03-08T13:41:10.885Z,30.80
2023-03-08T13:43:37.773Z,31.16
2023-03-08T13:46:10.879Z,31.13
2023-03-08T13:48:38.014Z,31.33
2023-03-08T13:51:05.186Z,31.44
2023-03-08T13:53:35.685Z,31.16
2023-03-08T13:56:05.850Z,31.19
2023-03-08T13:58:40.389Z,31.25
2023-03-08T14:01:13.956Z,31.21
2023-03-08T14:03:42.367Z,31.42
2023-03-08T14:06:30.318Z,30.95
2023-03-08T14:09:04.746Z,31.36
2023-03-08T14:11:33.124Z,31.51
2023-03-08T14:14:02.641Z,31.37
2023-03-08T14:16:32.143Z,31.45
2023-03-08T14:19:00.687Z,31.54
2023-03-08T14:21:30.183Z,31.44
2023-03-08T14:23:59.950Z,31.34
2023-03-08T14:26:31.759Z,31.37
2023-03-08T14:29:22.147Z,31.57
2023-03-08T14:32:12.422Z,31.53
2023-03-08T14:34:41.893Z,32.09
2023-03-08T14:37:11.489Z,32.10
2023-03-08T14:39:49.883Z,31.95
2023-03-08T14:42:25.608Z,32.16
2023-03-08T14:44:52.700Z,32.27
2023-03-08T14:47:31.690Z,32.18
2023-03-08T14:50:24.153Z,32.56
2023-03-08T14:52:54.435Z,32.25
2023-03-08T14:55:24.155Z,32.32
2023-03-08T14:57:54.049Z,32.36
2023-03-08T15:00:22.325Z,32.49
2023-03-08T15:02:49.567Z,32.42
2023-03-08T15:05:28.808Z,32.67
2023-03-08T15:07:59.448Z,32.50
2023-03-08T15:10:32.054Z,32.34
2023-03-08T15:12:59.626Z,32.25
2023-03-08T15:15:27.046Z,32.15
2023-03-08T15:17:53.915Z,32.18
2023-03-08T15:20:22.439Z,32.19
2023-03-08T15:22:52.946Z,32.43
2023-03-08T15:25:25.141Z,32.17
2023-03-08T15:27:52.218Z,32.25
2023-03-08T15:30:23.200Z,31.99
2023-03-08T15:32:50.425Z,32.00
2023-03-08T15:35:18.672Z,31.92
2023-03-08T15:37:46.416Z,31.77
2023-03-08T15:40:21.284Z,31.90
2023-03-08T15:42:51.877Z,32.11
2023-03-08T15:45:18.979Z,31.78
2023-03-08T15:47:56.607Z,31.71
2023-03-08T15:50:24.012Z,32.41
2023-03-08T15:52:50.914Z,32.05
2023-03-08T15:55:18.207Z,32.04
2023-03-08T15:57:45.107Z,32.41
2023-03-08T16:00:14.419Z,32.25
2023-03-08T16:02:41.322Z,32.34
2023-03-08T16:05:10.093Z,32.18
2023-03-08T16:07:37.344Z,32.72
2023-03-08T16:10:06.611Z,32.99
2023-03-08T16:12:33.568Z,33.50
2023-03-08T16:15:00.658Z,33.81
2023-03-08T16:17:30.409Z,34.33
2023-03-08T16:19:57.501Z,34.30
2023-03-08T16:22:24.393Z,34.03
2023-03-08T16:24:51.358Z,33.85
2023-03-08T16:27:18.562Z,33.82
2023-03-08T16:29:45.612Z,34.09
2023-03-08T16:32:15.495Z,33.99
2023-03-08T16:34:42.411Z,33.97
2023-03-08T16:37:09.263Z,33.97
2023-03-08T16:39:36.207Z,33.95
2023-03-08T16:42:03.190Z,34.38
2023-03-08T16:44:30.613Z,34.39
2023-03-08T16:46:57.607Z,34.79
2023-03-08T16:49:28.475Z,34.64
2023-03-08T16:51:56.320Z,34.80
2023-03-08T16:54:23.804Z,34.68
2023-03-08T16:56:50.877Z,34.72
2023-03-08T16:59:18.145Z,35.14
2023-03-08T17:01:47.487Z,35.16
2023-03-08T17:04:14.596Z,35.65
2023-03-08T17:06:44.449Z,35.58
2023-03-08T17:09:12.080Z,35.81
2023-03-08T17:11:39.413Z,36.45
2023-03-08T17:14:09.194Z,36.88
2023-03-08T17:16:36.793Z,36.66
2023-03-08T17:19:05.868Z,37.29
2023-03-08T17:21:38.210Z,37.04
2023-03-08T17:24:12.174Z,37.14
2023-03-08T17:26:45.897Z,37.41
2023-03-08T17:29:13.448Z,37.52
2023-03-08T17:31:41.049Z,37.56
2023-03-08T17:34:08.195Z,37.36
2023-03-08T17:36:35.212Z,37.57
2023-03-08T17:39:02.515Z,37.63
2023-03-08T17:41:29.535Z,37.74
2023-03-08T17:43:56.478Z,37.63
2023-03-08T17:46:25.255Z,37.83
2023-03-08T17:48:53.327Z,37.94
2023-03-08T17:51:26.350Z,37.75
2023-03-08T17:53:53.935Z,38.38
2023-03-08T17:56:26.799Z,38.63
2023-03-08T17:58:55.874Z,38.36
2023-03-08T18:01:25.384Z,38.81
2023-03-08T18:03:55.528Z,38.58
2023-03-08T18:06:27.940Z,38.63
2023-03-08T18:08:56.548Z,38.57
2023-03-08T18:11:24.535Z,38.67
2023-03-08T18:13:51.785Z,39.16
2023-03-08T18:16:20.529Z,39.15
2023-03-08T18:18:49.884Z,39.17
2023-03-08T18:21:18.419Z,39.63
2023-03-08T18:23:46.697Z,40.17
2023-03-08T18:26:15.586Z,39.72
2023-03-08T18:28:42.772Z,39.69
2023-03-08T18:31:18.875Z,40.35
2023-03-08T18:33:46.250Z,40.12
2023-03-08T18:36:13.418Z,40.73
2023-03-08T18:38:40.408Z,40.40
2023-03-08T18:41:18.881Z,40.43
2023-03-08T18:43:46.923Z,41.21
2023-03-08T18:46:14.786Z,40.93
2023-03-08T18:48:42.000Z,40.96
2023-03-08T18:51:09.654Z,40.72
2023-03-08T18:53:37.224Z,41.04
2023-03-08T18:56:04.862Z,40.26
2023-03-08T18:58:32.315Z,40.93
2023-03-08T19:01:00.566Z,41.24
2023-03-08T19:03:28.513Z,41.15
2023-03-08T19:05:56.164Z,40.97
2023-03-08T19:08:23.595Z,40.97
2023-03-08T19:10:50.436Z,41.61
2023-03-08T19:13:17.362Z,41.25
2023-03-08T19:15:44.221Z,41.27
2023-03-08T19:18:11.186Z,41.77
2023-03-08T19:20:40.517Z,41.56
2023-03-08T19:23:09.310Z,41.34
2023-03-08T19:25:58.245Z,41.86
2023-03-08T19:28:25.173Z,40.90
2023-03-08T19:30:52.178Z,40.69
2023-03-08T19:33:30.467Z,41.33
2023-03-08T19:35:59.021Z,41.22
2023-03-08T19:38:25.978Z,41.45
2023-03-08T19:40:52.841Z,41.57
2023-03-08T19:43:19.767Z,41.45
2023-03-08T19:45:49.927Z,41.64
2023-03-08T19:48:16.914Z,41.45
2023-03-08T19:50:47.059Z,41.48
2023-03-08T19:53:14.510Z,41.48
2023-03-08T19:55:59.353Z,41.55
2023-03-08T19:58:26.272Z,41.46
2023-03-08T20:01:06.184Z,41.80
2023-03-08T20:03:33.101Z,41.82
2023-03-08T20:05:59.990Z,42.31
2023-03-08T20:08:26.984Z,41.89
2023-03-08T20:10:54.018Z,41.59
2023-03-08T20:13:20.954Z,41.72
2023-03-08T20:15:47.814Z,41.77
2023-03-08T20:18:15.107Z,42.00
2023-03-08T20:20:42.045Z,41.67
2023-03-08T20:23:09.003Z,41.86
2023-03-08T20:25:36.116Z,42.42
2023-03-08T20:28:03.399Z,41.71
2023-03-08T20:30:30.517Z,42.08
2023-03-08T20:32:57.922Z,41.92
2023-03-08T20:35:24.921Z,42.12
2023-03-08T20:37:51.873Z,41.87
2023-03-08T20:40:21.150Z,42.29
2023-03-08T20:42:48.253Z,42.53
2023-03-08T20:45:15.945Z,42.75
2023-03-08T20:47:43.884Z,42.39
2023-03-08T20:50:11.537Z,42.60
2023-03-08T20:52:38.455Z,42.68
2023-03-08T20:55:06.034Z,42.65
2023-03-08T20:57:33.105Z,43.35
2023-03-08T21:00:00.005Z,44.24
2023-03-08T21:02:27.218Z,43.07
2023-03-08T21:04:57.121Z,43.80
2023-03-08T21:07:24.069Z,43.99
2023-03-08T21:09:51.008Z,43.99
2023-03-08T21:12:18.272Z,44.59
2023-03-08T21:14:45.207Z,44.23
2023-03-08T21:17:12.319Z,44.50
2023-03-08T21:19:39.561Z,44.46
2023-03-08T21:22:07.337Z,45.15
2023-03-08T21:24:34.207Z,44.79
2023-03-08T21:27:01.181Z,45.45
2023-03-08T21:29:29.112Z,45.16
2023-03-08T21:31:56.641Z,45.27
2023-03-08T21:34:23.944Z,45.60
2023-03-08T21:36:51.081Z,45.61
2023-03-08T21:39:18.396Z,46.02
2023-03-08T21:41:47.438Z,46.56
2023-03-08T21:44:17.084Z,46.38
2023-03-08T21:46:44.707Z,46.68
2023-03-08T21:49:17.840Z,47.35
2023-03-08T21:51:45.328Z,46.60
2023-03-08T21:54:12.408Z,46.50
2023-03-08T21:56:40.094Z,47.08
2023-03-08T21:59:07.410Z,47.92
2023-03-08T22:01:34.650Z,46.84
2023-03-08T22:04:03.414Z,46.77
2023-03-08T22:06:30.913Z,46.47
2023-03-08T22:08:58.420Z,46.86
2023-03-08T22:11:27.398Z,46.83
2023-03-08T22:13:57.345Z,47.70
2023-03-08T22:16:26.078Z,47.95
2023-03-08T22:18:55.263Z,48.31
2023-03-08T22:21:22.380Z,48.21
2023-03-08T22:23:53.258Z,48.41
2023-03-08T22:26:21.228Z,47.61
2023-03-08T22:28:48.587Z,48.27
2023-03-08T22:31:18.080Z,47.66
2023-03-08T22:33:45.045Z,47.94
2023-03-08T22:36:14.323Z,47.39
2023-03-08T22:38:42.008Z,47.84
2023-03-08T22:41:18.189Z,46.71
2023-03-08T22:43:46.158Z,46.85
2023-03-08T22:46:18.872Z,46.50
2023-03-08T22:48:47.231Z,46.81
2023-03-08T22:51:15.409Z,46.51
2023-03-08T22:53:42.402Z,47.07
2023-03-08T22:56:22.523Z,46.58
2023-03-08T22:58:50.242Z,46.75
2023-03-08T23:01:20.812Z,45.96
2023-03-08T23:03:50.197Z,45.99
2023-03-08T23:06:18.654Z,45.90
2023-03-08T23:08:46.023Z,45.81
2023-03-08T23:11:13.628Z,46.20
2023-03-08T23:13:41.445Z,45.92
2023-03-08T23:16:11.544Z,45.82
2023-03-08T23:18:38.758Z,45.73
2023-03-08T23:21:08.138Z,45.46
2023-03-08T23:23:36.240Z,45.45
2023-03-08T23:26:05.521Z,45.55
2023-03-08T23:28:35.618Z,45.75
2023-03-08T23:31:08.969Z,45.62
2023-03-08T23:33:35.974Z,45.19
2023-03-08T23:36:03.151Z,45.00
2023-03-08T23:38:30.097Z,44.96
2023-03-08T23:40:57.034Z,45.39
2023-03-08T23:43:23.954Z,45.46
2023-03-08T23:45:50.945Z,45.38
2023-03-08T23:48:17.946Z,45.54
2023-03-08T23:50:44.779Z,45.63
2023-03-08T23:53:11.645Z,45.24
2023-03-08T23:55:40.276Z,45.22
2023-03-08T23:58:08.068Z,45.34
